createdAt,value
2022-09-13T00:00:22.021Z,80.38
2022-09-13T00:10:27.200Z,80.64
2022-09-13T00:20:30.183Z,80.85
2022-09-13T00:30:34.745Z,81.29
2022-09-13T00:40:38.984Z,81.71
2022-09-13T00:50:46.899Z,81.91
2022-09-13T01:00:50.634Z,81.90
2022-09-13T01:10:58.194Z,82.00
2022-09-13T01:21:37.318Z,81.80
2022-09-13T01:31:47.967Z,82.44
2022-09-13T01:42:05.222Z,82.62
2022-09-13T01:52:17.469Z,82.97
2022-09-13T02:02:25.222Z,83.80
2022-09-13T02:12:32.875Z,84.74
2022-09-13T02:22:41.983Z,84.97
2022-09-13T02:32:51.188Z,85.21
2022-09-13T02:42:59.901Z,85.60
2022-09-13T02:53:12.928Z,86.22
2022-09-13T03:03:17.435Z,85.29
2022-09-13T03:13:46.675Z,85.54
2022-09-13T03:24:01.727Z,85.67
2022-09-13T03:34:11.832Z,85.73
2022-09-13T03:44:17.103Z,85.95
2022-09-13T03:54:23.642Z,85.94
2022-09-13T04:04:26.615Z,86.72
2022-09-13T04:14:30.923Z,87.47
2022-09-13T04:24:33.630Z,87.70
2022-09-13T04:34:38.141Z,87.77
2022-09-13T04:44:40.812Z,89.50
2022-09-13T04:54:45.029Z,89.49
2022-09-13T05:04:47.680Z,89.00
2022-09-13T05:14:51.672Z,89.03
2022-09-13T05:24:54.448Z,88.69
2022-09-13T05:34:58.483Z,88.69
2022-09-13T05:45:01.402Z,88.99
2022-09-13T05:55:05.995Z,89.04
2022-09-13T06:05:10.599Z,89.34
2022-09-13T06:15:15.683Z,89.55
2022-09-13T06:25:18.397Z,89.95
2022-09-13T06:35:22.429Z,90.28
2022-09-13T06:45:25.101Z,90.48
2022-09-13T06:55:29.058Z,91.27
2022-09-13T07:05:31.862Z,90.64
2022-09-13T07:15:38.879Z,90.11
2022-09-13T07:25:41.596Z,89.25
2022-09-13T07:35:45.603Z,88.73
2022-09-13T07:45:48.278Z,88.38
2022-09-13T07:55:52.300Z,87.25
2022-09-13T08:05:54.951Z,87.17
2022-09-13T08:16:02.485Z,85.92
2022-09-13T08:26:06.386Z,82.11
2022-09-13T08:36:10.445Z,76.53
2022-09-13T08:46:22.267Z,75.14
2022-09-13T08:56:35.022Z,71.86
2022-09-13T09:06:37.979Z,69.45
2022-09-13T09:16:48.102Z,64.17
2022-09-13T09:26:51.109Z,65.89
2022-09-13T09:37:01.519Z,62.73
2022-09-13T09:47:08.475Z,59.00
2022-09-13T09:57:13.283Z,58.67
2022-09-13T10:07:27.663Z,56.10
2022-09-13T10:17:31.714Z,54.29
2022-09-13T10:27:38.841Z,54.50
2022-09-13T10:37:45.168Z,53.39
2022-09-13T10:47:51.353Z,50.51
2022-09-13T10:57:56.947Z,51.92
2022-09-13T11:08:26.472Z,51.11
2022-09-13T11:18:51.285Z,48.51
2022-09-13T11:29:06.584Z,35.37
2022-09-13T11:39:23.839Z,35.00
2022-09-13T11:49:46.714Z,37.88
2022-09-13T11:59:55.496Z,31.75
2022-09-13T12:10:03.993Z,27.16
2022-09-13T12:20:16.573Z,22.34
2022-09-13T12:30:21.245Z,25.04
2022-09-13T12:40:50.515Z,26.14
2022-09-13T12:51:07.018Z,32.27
2022-09-13T13:01:16.004Z,41.20
2022-09-13T13:11:23.838Z,42.42
2022-09-13T13:21:37.779Z,46.86
2022-09-13T13:31:46.798Z,48.28
2022-09-13T13:41:56.386Z,49.10
2022-09-13T13:52:32.366Z,49.96
2022-09-13T14:02:42.226Z,49.43
2022-09-13T14:12:57.537Z,51.66
2022-09-13T14:23:18.324Z,51.27
2022-09-13T14:33:30.824Z,49.87
2022-09-13T14:43:34.829Z,53.10
2022-09-13T14:53:37.904Z,52.18
2022-09-13T15:03:44.092Z,51.80
2022-09-13T15:13:46.846Z,52.22
2022-09-13T15:23:52.166Z,52.93
2022-09-13T15:34:13.746Z,53.27
2022-09-13T15:44:17.751Z,52.68
2022-09-13T15:54:22.730Z,53.25
2022-09-13T16:04:26.706Z,53.56
2022-09-13T16:14:29.453Z,54.26
2022-09-13T16:24:33.976Z,54.49
2022-09-13T16:34:36.872Z,54.17
2022-09-13T16:44:40.970Z,55.24
2022-09-13T16:54:46.337Z,56.20
2022-09-13T17:04:50.398Z,57.22
2022-09-13T17:14:54.957Z,58.57
2022-09-13T17:24:59.076Z,60.80
2022-09-13T17:35:01.782Z,61.96
2022-09-13T17:45:07.234Z,62.96
2022-09-13T17:55:10.458Z,63.56
2022-09-13T18:05:14.537Z,64.53
2022-09-13T18:15:17.297Z,65.18
2022-09-13T18:25:23.467Z,65.76
2022-09-13T18:35:26.471Z,66.40
2022-09-13T18:45:31.207Z,66.69
2022-09-13T18:55:39.787Z,68.03
2022-09-13T19:05:44.140Z,68.58
2022-09-13T19:15:47.260Z,68.78
2022-09-13T19:25:51.393Z,69.36
2022-09-13T19:35:54.126Z,69.59
2022-09-13T19:46:00.420Z,69.68
2022-09-13T19:56:04.856Z,69.85
2022-09-13T20:06:11.281Z,70.87
2022-09-13T20:16:18.339Z,71.10
2022-09-13T20:26:25.499Z,71.07
2022-09-13T20:36:30.493Z,71.41
2022-09-13T20:46:34.632Z,71.94
2022-09-13T20:56:37.442Z,72.69
2022-09-13T21:07:03.637Z,73.34
2022-09-13T21:17:07.826Z,73.33
2022-09-13T21:27:12.223Z,73.54
2022-09-13T21:37:15.658Z,73.84
2022-09-13T21:47:19.880Z,74.84
2022-09-13T21:57:22.905Z,75.09
2022-09-13T22:07:27.012Z,75.32
2022-09-13T22:17:29.926Z,75.71
2022-09-13T22:27:34.043Z,75.89
2022-09-13T22:37:36.755Z,76.96
2022-09-13T22:47:40.758Z,76.77
2022-09-13T22:57:43.438Z,77.18
2022-09-13T23:07:47.559Z,77.01
2022-09-13T23:17:50.215Z,77.74
2022-09-13T23:27:54.363Z,78.50
2022-09-13T23:37:57.082Z,78.75
2022-09-13T23:48:01.137Z,78.41
2022-09-13T23:58:03.990Z,78.63
